Time;durP1;ratioP1;P1;durP2;ratioP2;P2;SDS_P1;SDS_P2;PMS_P1;PMS_P2;Temp;Humidity;BMP_temperature;BMP_pressure;BME280_temperature;BME280_humidity;BME280_pressure;Samples;Min_cycle;Max_cycle;Signal;HPM_P1;HPM_P2
2022/05/15 00:00:37;;;;;;;;;;;16.50;99.90;;;;;;4946319;29;19919;-86
2022/05/15 00:03:13;;;;;;;;;;;16.40;99.90;;;;;;4957085;29;19938;-86
2022/05/15 00:05:44;;;;;;;;;;;16.20;99.90;;;;;;4944505;29;19918;-86
2022/05/15 00:08:30;;;;;;;;;;;;;;;;;;;;;
2022/05/15 00:11:11;;;;;;;;;;;16.00;99.90;;;;;;4955134;29;19918;-87
2022/05/15 00:13:40;;;;;;;;;;;16.00;99.90;;;;;;4939574;29;19918;-86
2022/05/15 00:16:16;;;;;;;;;;;15.90;99.90;;;;;;4942274;28;19969;-86
2022/05/15 00:18:47;;;;;;;;;;;15.80;99.90;;;;;;4937158;29;20329;-86
2022/05/15 00:21:25;;;;;;;;;;;15.80;99.90;;;;;;4934202;29;19929;-86
2022/05/15 00:23:57;;;;;;;;;;;15.80;99.90;;;;;;4941889;29;19923;-86
2022/05/15 00:26:35;;;;;;;;;;;15.80;99.90;;;;;;4956072;28;19918;-87
2022/05/15 00:29:11;;;;;;;;;;;15.80;99.90;;;;;;4940718;29;19921;-86
2022/05/15 00:31:50;;;;;;;;;;;15.80;99.90;;;;;;4945662;28;19923;-87
2022/05/15 00:34:22;;;;;;;;;;;15.70;99.90;;;;;;4938319;29;19921;-86
2022/05/15 00:37:05;;;;;;;;;;;15.60;99.90;;;;;;4946412;29;19977;-86
2022/05/15 00:39:39;;;;;;;;;;;15.60;99.90;;;;;;4945687;29;19945;-86
2022/05/15 00:42:18;;;;;;;;;;;15.60;99.90;;;;;;4958087;29;20387;-86
2022/05/15 00:44:46;;;;;;;;;;;15.60;99.90;;;;;;4942256;29;19914;-86
2022/05/15 00:47:14;;;;;;;;;;;15.60;99.90;;;;;;4937504;29;19915;-86
2022/05/15 00:49:44;;;;;;;;;;;15.60;99.90;;;;;;4940285;28;19920;-84
2022/05/15 00:52:14;;;;;;;;;;;15.60;99.90;;;;;;4945292;28;20005;-83
2022/05/15 00:54:49;;;;;;;;;;;15.60;99.90;;;;;;4945619;28;20427;-83
2022/05/15 00:57:32;;;;;;;;;;;15.60;99.90;;;;;;4947469;29;19965;-83
2022/05/15 01:00:12;;;;;;;;;;;15.50;99.90;;;;;;4947712;29;19925;-84
2022/05/15 01:02:48;;;;;;;;;;;15.50;99.90;;;;;;4944921;29;19915;-83
2022/05/15 01:05:17;;;;;;;;;;;15.50;99.90;;;;;;4947861;29;19922;-84
2022/05/15 01:07:45;;;;;;;;;;;15.40;99.90;;;;;;4960256;29;20009;-84
2022/05/15 01:10:14;;;;;;;;;;;15.40;99.90;;;;;;4945727;29;19921;-82
2022/05/15 01:12:51;;;;;;;;;;;15.30;99.90;;;;;;4961057;28;19922;-83
2022/05/15 01:15:30;;;;;;;;;;;15.20;99.90;;;;;;4946326;29;19918;-83
2022/05/15 01:17:56;;;;;;;;;;;15.20;99.90;;;;;;4941758;29;19982;-82
2022/05/15 01:20:34;;;;;;;;;;;15.20;99.90;;;;;;4950592;29;20392;-82
2022/05/15 01:23:03;;;;;;;;;;;15.20;99.90;;;;;;4962376;28;19921;-83
2022/05/15 01:25:39;;;;;;;;;;;15.10;99.90;;;;;;4962332;28;19918;-82
2022/05/15 01:28:07;;;;;;;;;;;15.10;99.90;;;;;;4944732;29;19930;-83
2022/05/15 01:30:36;;;;;;;;;;;15.00;99.90;;;;;;4949052;29;19915;-83
2022/05/15 01:33:11;;;;;;;;;;;15.00;99.90;;;;;;4945374;29;19942;-84
2022/05/15 01:35:37;;;;;;;;;;;15.00;99.90;;;;;;4963506;29;20046;-85
2022/05/15 01:38:11;;;;;;;;;;;14.90;99.90;;;;;;4950749;29;19930;-85
2022/05/15 01:40:37;;;;;;;;;;;14.90;99.90;;;;;;4946827;29;20461;-85
2022/05/15 01:43:07;;;;;;;;;;;14.90;99.90;;;;;;4962736;28;19923;-85
2022/05/15 01:45:33;;;;;;;;;;;14.90;99.90;;;;;;4947269;29;19919;-85
2022/05/15 01:47:58;;;;;;;;;;;14.80;99.90;;;;;;4953072;29;20283;-85
2022/05/15 01:50:24;;;;;;;;;;;14.80;99.90;;;;;;4949761;29;19914;-85
2022/05/15 01:52:50;;;;;;;;;;;14.80;99.90;;;;;;4947731;29;19914;-86
2022/05/15 01:55:15;;;;;;;;;;;14.80;99.90;;;;;;4949611;29;19965;-85
2022/05/15 01:57:41;;;;;;;;;;;14.80;99.90;;;;;;4948407;29;19922;-85
2022/05/15 02:00:10;;;;;;;;;;;14.80;99.90;;;;;;4947376;29;19923;-85
2022/05/15 02:02:38;;;;;;;;;;;14.70;99.90;;;;;;4963371;29;19929;-85
2022/05/15 02:05:05;;;;;;;;;;;14.70;99.90;;;;;;4965604;28;19962;-85
2022/05/15 02:07:33;;;;;;;;;;;14.70;99.90;;;;;;4947346;29;19993;-85
2022/05/15 02:09:58;;;;;;;;;;;14.60;99.90;;;;;;4958727;28;19914;-84
2022/05/15 02:12:24;;;;;;;;;;;14.60;99.90;;;;;;4964066;28;19914;-85
2022/05/15 02:14:53;;;;;;;;;;;14.50;99.90;;;;;;4949230;28;20383;-85
2022/05/15 02:17:18;;;;;;;;;;;14.50;99.90;;;;;;4946285;29;19915;-85
2022/05/15 02:19:44;;;;;;;;;;;14.40;99.90;;;;;;4946590;29;19919;-85
2022/05/15 02:22:12;;;;;;;;;;;14.40;1.00;;;;;;4946170;29;19925;-85
2022/05/15 02:24:38;;;;;;;;;;;14.40;1.00;;;;;;4946379;29;19961;-85
2022/05/15 02:27:07;;;;;;;;;;;14.40;1.00;;;;;;4948049;29;19914;-85
2022/05/15 02:29:33;;;;;;;;;;;14.30;1.00;;;;;;4946394;29;19918;-84
2022/05/15 02:32:01;;;;;;;;;;;14.30;1.00;;;;;;4963654;28;19938;-85
2022/05/15 02:34:26;;;;;;;;;;;14.30;1.00;;;;;;4960973;28;20277;-84
2022/05/15 02:36:52;;;;;;;;;;;14.30;1.00;;;;;;4952314;28;19921;-84
2022/05/15 02:39:20;;;;;;;;;;;14.20;1.00;;;;;;4947828;29;20005;-86
2022/05/15 02:41:45;;;;;;;;;;;14.20;1.00;;;;;;4945180;29;19914;-85
2022/05/15 02:44:14;;;;;;;;;;;14.10;1.00;;;;;;4946024;29;20364;-85
2022/05/15 02:46:40;;;;;;;;;;;14.10;1.00;;;;;;4960908;29;20357;-85
2022/05/15 02:51:53;;;;;;;;;;;14.00;1.00;;;;;;4962061;29;19924;-83
2022/05/15 02:54:19;;;;;;;;;;;14.00;1.00;;;;;;4945558;29;19918;-85
2022/05/15 02:56:44;;;;;;;;;;;13.90;1.00;;;;;;4951628;29;19929;-84
2022/05/15 02:59:12;;;;;;;;;;;13.90;1.00;;;;;;4962367;29;19914;-84
2022/05/15 03:01:38;;;;;;;;;;;13.90;1.00;;;;;;4960762;29;19923;-84
2022/05/15 03:04:07;;;;;;;;;;;13.80;1.00;;;;;;4961278;29;20074;-84
2022/05/15 03:06:32;;;;;;;;;;;13.80;37.60;;;;;;4968804;28;19914;-84
2022/05/15 03:08:58;;;;;;;;;;;13.70;99.90;;;;;;4944736;29;19938;-84
2022/05/15 03:11:24;;;;;;;;;;;13.70;99.90;;;;;;4944091;29;19941;-85
2022/05/15 03:13:49;;;;;;;;;;;13.70;99.90;;;;;;4962791;29;19915;-84
2022/05/15 03:16:18;;;;;;;;;;;13.60;99.90;;;;;;4960510;29;19915;-84
2022/05/15 03:18:45;;;;;;;;;;;13.60;99.90;;;;;;4946540;29;19922;-84
2022/05/15 03:21:13;;;;;;;;;;;13.60;99.90;;;;;;4948475;29;20013;-85
2022/05/15 03:23:39;;;;;;;;;;;13.60;99.90;;;;;;4961312;28;19919;-85
2022/05/15 03:26:07;;;;;;;;;;;13.60;99.90;;;;;;4945205;29;19973;-86
2022/05/15 03:28:33;;;;;;;;;;;13.60;99.90;;;;;;4945363;29;19911;-85
2022/05/15 03:31:01;;;;;;;;;;;13.50;99.90;;;;;;4948960;29;19921;-85
2022/05/15 03:33:27;;;;;;;;;;;13.50;1.00;;;;;;4962764;28;19921;-85
2022/05/15 03:35:52;;;;;;;;;;;13.40;1.00;;;;;;4964427;29;20010;-85
2022/05/15 03:38:18;;;;;;;;;;;13.30;1.00;;;;;;4961698;29;19911;-85
2022/05/15 03:40:46;;;;;;;;;;;13.30;9.00;;;;;;4946915;29;19929;-85
2022/05/15 03:43:12;;;;;;;;;;;13.30;99.90;;;;;;4962294;28;19911;-85
2022/05/15 03:45:37;;;;;;;;;;;13.20;1.00;;;;;;4950759;29;19921;-85
2022/05/15 03:48:04;;;;;;;;;;;13.10;21.30;;;;;;4947435;28;19914;-85
2022/05/15 03:50:30;;;;;;;;;;;13.10;99.90;;;;;;4963010;29;19953;-85
2022/05/15 03:52:55;;;;;;;;;;;13.10;99.90;;;;;;4949136;29;19915;-85
2022/05/15 03:55:21;;;;;;;;;;;13.10;99.90;;;;;;4949328;28;19962;-85
2022/05/15 03:57:46;;;;;;;;;;;13.10;99.90;;;;;;4942570;29;19998;-84
2022/05/15 04:00:14;;;;;;;;;;;13.10;99.90;;;;;;4951425;29;19919;-84
2022/05/15 04:02:40;;;;;;;;;;;13.10;99.90;;;;;;4953559;28;19914;-85
2022/05/15 04:05:06;;;;;;;;;;;13.20;41.90;;;;;;4946493;28;19921;-85
2022/05/15 04:07:32;;;;;;;;;;;13.20;1.00;;;;;;4960275;28;20127;-85
2022/05/15 04:10:00;;;;;;;;;;;13.30;1.00;;;;;;4946008;29;19915;-84
2022/05/15 04:12:25;;;;;;;;;;;13.30;1.00;;;;;;4961467;29;19911;-84
2022/05/15 04:14:51;;;;;;;;;;;13.30;1.00;;;;;;4961821;29;19922;-84
2022/05/15 04:17:16;;;;;;;;;;;13.30;1.00;;;;;;4950123;29;20381;-85
2022/05/15 04:19:42;;;;;;;;;;;13.40;99.90;;;;;;4960749;29;19922;-84
2022/05/15 04:22:10;;;;;;;;;;;13.50;99.90;;;;;;4958987;29;19914;-84
2022/05/15 04:24:35;;;;;;;;;;;13.50;99.90;;;;;;4961632;29;19918;-85
2022/05/15 04:27:02;;;;;;;;;;;13.60;99.90;;;;;;4961281;28;19921;-84
2022/05/15 04:29:28;;;;;;;;;;;13.60;99.90;;;;;;4950292;29;19914;-85
2022/05/15 04:31:55;;;;;;;;;;;13.70;45.90;;;;;;4950430;29;19915;-85
2022/05/15 04:34:21;;;;;;;;;;;13.70;29.10;;;;;;4949931;29;19970;-84
2022/05/15 04:36:47;;;;;;;;;;;13.70;1.00;;;;;;4958555;29;20319;-85
2022/05/15 04:39:12;;;;;;;;;;;13.90;1.00;;;;;;4957242;29;20001;-85
2022/05/15 04:41:38;;;;;;;;;;;13.90;1.00;;;;;;4965556;29;19958;-86
2022/05/15 04:44:04;;;;;;;;;;;14.00;1.00;;;;;;4947731;29;20002;-85
2022/05/15 04:46:29;;;;;;;;;;;14.10;1.00;;;;;;4955719;29;19919;-84
2022/05/15 04:48:56;;;;;;;;;;;14.30;1.00;;;;;;4944699;29;19918;-84
2022/05/15 04:51:21;;;;;;;;;;;14.50;99.90;;;;;;4965156;29;19922;-84
2022/05/15 04:53:47;;;;;;;;;;;14.50;99.90;;;;;;4968237;29;19922;-85
2022/05/15 04:56:15;;;;;;;;;;;14.60;99.90;;;;;;4949125;29;19996;-85
2022/05/15 04:58:41;;;;;;;;;;;14.70;99.90;;;;;;4966011;29;19915;-85
2022/05/15 05:01:07;;;;;;;;;;;14.80;99.90;;;;;;4964877;28;19918;-85
2022/05/15 05:03:32;;;;;;;;;;;14.90;99.90;;;;;;4949867;29;20288;-85
2022/05/15 05:06:01;;;;;;;;;;;14.90;99.90;;;;;;4951298;28;19915;-84
2022/05/15 05:08:29;;;;;;;;;;;15.00;99.90;;;;;;4951196;29;19918;-85
2022/05/15 05:10:54;;;;;;;;;;;15.20;99.90;;;;;;4946716;29;19914;-85
2022/05/15 05:13:20;;;;;;;;;;;15.30;80.30;;;;;;4948856;28;19915;-85
2022/05/15 05:15:46;;;;;;;;;;;15.40;25.80;;;;;;4944281;29;19922;-85
2022/05/15 05:18:15;;;;;;;;;;;15.50;5.50;;;;;;4964300;29;19914;-84
2022/05/15 05:20:44;;;;;;;;;;;15.70;1.00;;;;;;4951003;29;19944;-85
2022/05/15 05:23:13;;;;;;;;;;;15.80;1.00;;;;;;4959464;28;20010;-85
2022/05/15 05:25:38;;;;;;;;;;;15.80;1.00;;;;;;4959626;29;19965;-85
2022/05/15 05:28:07;;;;;;;;;;;16.00;1.00;;;;;;4945790;29;19922;-84
2022/05/15 05:30:33;;;;;;;;;;;16.10;1.00;;;;;;4946951;29;19914;-86
2022/05/15 05:33:01;;;;;;;;;;;16.20;1.00;;;;;;4947391;28;19967;-84
2022/05/15 05:35:27;;;;;;;;;;;16.30;1.00;;;;;;4962975;29;20384;-88
2022/05/15 05:37:53;;;;;;;;;;;16.60;1.00;;;;;;4953697;29;19930;-88
2022/05/15 05:40:19;;;;;;;;;;;17.00;1.00;;;;;;4955870;28;19979;-88
2022/05/15 05:42:44;;;;;;;;;;;17.40;1.00;;;;;;4952840;29;19914;-88
2022/05/15 05:45:10;;;;;;;;;;;18.20;99.90;;;;;;4955368;29;19922;-88
2022/05/15 05:47:36;;;;;;;;;;;19.90;99.90;;;;;;4938392;28;20300;-88
2022/05/15 05:50:02;;;;;;;;;;;22.80;99.90;;;;;;4957553;29;19922;-88
2022/05/15 05:52:28;;;;;;;;;;;24.60;99.90;;;;;;4956803;28;20431;-88
2022/05/15 05:54:53;;;;;;;;;;;26.00;99.90;;;;;;4962502;29;19910;-90
2022/05/15 05:57:19;;;;;;;;;;;27.60;99.90;;;;;;4949348;29;19976;-89
2022/05/15 05:59:44;;;;;;;;;;;28.90;99.90;;;;;;4937703;28;20062;-89
2022/05/15 06:02:13;;;;;;;;;;;30.40;99.90;;;;;;4940492;28;19918;-89
2022/05/15 06:04:46;;;;;;;;;;;32.00;99.90;;;;;;4955246;29;19914;-89
2022/05/15 06:07:13;;;;;;;;;;;33.60;99.90;;;;;;4953223;29;19914;-89
2022/05/15 06:09:42;;;;;;;;;;;33.40;99.90;;;;;;4937159;29;19914;-89
2022/05/15 06:12:08;;;;;;;;;;;31.90;99.90;;;;;;4950789;28;19950;-89
2022/05/15 06:14:34;;;;;;;;;;;32.00;99.90;;;;;;4937441;29;20011;-89
2022/05/15 06:16:59;;;;;;;;;;;31.10;99.90;;;;;;4934439;29;20369;-88
2022/05/15 06:19:25;;;;;;;;;;;31.30;99.90;;;;;;4953555;29;19919;-89
2022/05/15 06:21:50;;;;;;;;;;;30.70;99.90;;;;;;4953121;29;21338;-87
2022/05/15 06:24:16;;;;;;;;;;;31.60;99.90;;;;;;4952517;29;19966;-87
2022/05/15 06:26:41;;;;;;;;;;;33.50;99.90;;;;;;4956473;29;19918;-88
2022/05/15 06:29:07;;;;;;;;;;;34.90;99.90;;;;;;4954679;29;19915;-87
2022/05/15 06:31:32;;;;;;;;;;;34.50;99.90;;;;;;4943641;28;19921;-87
2022/05/15 06:33:58;;;;;;;;;;;34.50;99.90;;;;;;4952992;28;19953;-88
2022/05/15 06:36:24;;;;;;;;;;;35.20;99.90;;;;;;4936822;29;19914;-88
2022/05/15 06:38:49;;;;;;;;;;;35.30;99.90;;;;;;4952589;29;20848;-88
2022/05/15 06:41:15;;;;;;;;;;;37.10;99.90;;;;;;4936010;29;19919;-88
2022/05/15 06:43:40;;;;;;;;;;;40.10;99.90;;;;;;4950067;29;19930;-88
2022/05/15 06:46:06;;;;;;;;;;;40.90;99.90;;;;;;4951435;29;20669;-88
2022/05/15 06:48:33;;;;;;;;;;;41.70;99.90;;;;;;4936009;29;19914;-88
2022/05/15 06:50:59;;;;;;;;;;;40.20;99.90;;;;;;4945624;28;20005;-88
2022/05/15 06:53:25;;;;;;;;;;;40.00;99.90;;;;;;4952863;28;19914;-88
2022/05/15 06:58:34;;;;;;;;;;;41.50;99.90;;;;;;4948539;29;19922;-89
2022/05/15 07:01:00;;;;;;;;;;;41.40;99.90;;;;;;4953161;29;19914;-88
2022/05/15 07:03:25;;;;;;;;;;;39.30;99.90;;;;;;4932755;29;19926;-88
2022/05/15 07:05:51;;;;;;;;;;;40.00;99.90;;;;;;4931855;29;19957;-89
2022/05/15 07:08:17;;;;;;;;;;;40.10;99.90;;;;;;4935346;29;19961;-89
2022/05/15 07:10:42;;;;;;;;;;;41.10;99.90;;;;;;4953468;29;19933;-88
2022/05/15 07:13:08;;;;;;;;;;;40.20;99.90;;;;;;4953757;28;19915;-88
2022/05/15 07:15:33;;;;;;;;;;;38.70;99.90;;;;;;4953933;29;20308;-87
2022/05/15 07:17:59;;;;;;;;;;;38.70;99.90;;;;;;4935843;29;19921;-88
2022/05/15 07:20:24;;;;;;;;;;;38.40;99.90;;;;;;4952909;29;19924;-88
2022/05/15 07:22:51;;;;;;;;;;;39.10;99.90;;;;;;4947762;28;21713;-87
2022/05/15 07:25:17;;;;;;;;;;;40.30;99.90;;;;;;4953880;29;19974;-87
2022/05/15 07:27:42;;;;;;;;;;;40.20;99.90;;;;;;4934792;29;19918;-89
2022/05/15 07:30:08;;;;;;;;;;;40.50;99.90;;;;;;4953516;29;20395;-87
2022/05/15 07:32:36;;;;;;;;;;;41.90;99.90;;;;;;4951092;28;19922;-88
2022/05/15 07:50:40;;;;;;;;;;;42.60;99.90;;;;;;4977968;28;19926;-83
2022/05/15 07:53:08;;;;;;;;;;;42.50;99.90;;;;;;4958763;28;19914;-84
2022/05/15 07:55:34;;;;;;;;;;;42.00;99.90;;;;;;4975534;28;19918;-84
2022/05/15 07:57:59;;;;;;;;;;;41.90;99.90;;;;;;4975613;28;19922;-84
2022/05/15 08:00:26;;;;;;;;;;;40.90;99.90;;;;;;4973362;28;20012;-84
2022/05/15 08:02:59;;;;;;;;;;;41.50;99.90;;;;;;4974324;28;19918;-84
2022/05/15 08:08:12;;;;;;;;;;;42.80;99.90;;;;;;4976544;28;20363;-83
2022/05/15 08:10:41;;;;;;;;;;;43.60;99.90;;;;;;4962274;28;19941;-83
2022/05/15 08:13:07;;;;;;;;;;;44.00;99.90;;;;;;4972956;28;19921;-83
2022/05/15 08:15:33;;;;;;;;;;;44.20;99.90;;;;;;4957356;29;19910;-84
2022/05/15 08:23:33;;;;;;;;;;;45.50;99.90;;;;;;4958626;28;19915;-84
2022/05/15 08:23:34;;;;;;;;;;;46.90;99.90;;;;;;4973299;28;19921;-84
2022/05/15 08:26:00;;;;;;;;;;;46.60;99.90;;;;;;4958580;28;19938;-85
2022/05/15 08:28:26;;;;;;;;;;;45.70;99.90;;;;;;4974911;28;19957;-83
2022/05/15 08:30:51;;;;;;;;;;;44.70;99.90;;;;;;4978908;28;19914;-84
2022/05/15 08:33:17;;;;;;;;;;;45.40;99.90;;;;;;4960599;28;20249;-84
2022/05/15 08:35:42;;;;;;;;;;;46.80;99.90;;;;;;4965205;28;19910;-84
2022/05/15 08:38:08;;;;;;;;;;;47.00;99.90;;;;;;4962165;28;19910;-84
2022/05/15 08:40:45;;;;;;;;;;;45.90;99.90;;;;;;4962233;28;20017;-84
2022/05/15 08:43:11;;;;;;;;;;;45.30;99.90;;;;;;4968850;28;20365;-84
2022/05/15 08:45:40;;;;;;;;;;;43.00;99.90;;;;;;4970340;28;19914;-84
2022/05/15 08:48:06;;;;;;;;;;;40.60;97.30;;;;;;4972454;28;19914;-84
2022/05/15 08:50:38;;;;;;;;;;;40.30;97.10;;;;;;4981845;28;19918;-84
2022/05/15 08:53:08;;;;;;;;;;;39.80;96.10;;;;;;4963064;28;19970;-84
2022/05/15 08:55:39;;;;;;;;;;;41.80;99.90;;;;;;4982457;28;19922;-84
2022/05/15 08:58:19;;;;;;;;;;;42.10;99.90;;;;;;4962120;28;19965;-84
2022/05/15 09:00:50;;;;;;;;;;;41.30;98.20;;;;;;4955914;28;19918;-84
2022/05/15 09:03:18;;;;;;;;;;;42.10;99.20;;;;;;4964661;28;20005;-84
2022/05/15 09:06:04;;;;;;;;;;;42.80;99.90;;;;;;4971869;28;19922;-84
2022/05/15 09:08:36;;;;;;;;;;;42.60;99.40;;;;;;4939150;28;20017;-84
2022/05/15 09:11:04;;;;;;;;;;;43.70;99.90;;;;;;4976576;28;19925;-84
2022/05/15 09:13:37;;;;;;;;;;;43.30;98.50;;;;;;4956971;28;20292;-84
2022/05/15 09:16:03;;;;;;;;;;;43.10;97.80;;;;;;4973662;28;20331;-84
2022/05/15 09:18:29;;;;;;;;;;;43.10;97.50;;;;;;4961337;28;19997;-84
2022/05/15 09:21:01;;;;;;;;;;;41.60;94.30;;;;;;4970020;28;19918;-84
2022/05/15 09:23:29;;;;;;;;;;;41.30;92.70;;;;;;4966226;28;20391;-84
2022/05/15 09:25:56;;;;;;;;;;;41.00;91.40;;;;;;4982410;28;20379;-84
2022/05/15 09:28:26;;;;;;;;;;;40.90;91.90;;;;;;4979610;28;20320;-84
2022/05/15 09:30:52;;;;;;;;;;;40.30;90.80;;;;;;4968883;28;19925;-84
2022/05/15 09:33:23;;;;;;;;;;;40.10;90.80;;;;;;4964206;28;19920;-84
2022/05/15 09:35:48;;;;;;;;;;;40.30;91.30;;;;;;4960027;28;19914;-84
2022/05/15 09:38:28;;;;;;;;;;;40.10;91.00;;;;;;4963078;28;20284;-84
2022/05/15 09:43:41;;;;;;;;;;;40.50;92.50;;;;;;4971681;28;19921;-84
2022/05/15 09:46:10;;;;;;;;;;;40.80;92.60;;;;;;4972849;28;19922;-84
2022/05/15 09:48:36;;;;;;;;;;;41.00;92.80;;;;;;4955719;28;20292;-85
2022/05/15 09:51:03;;;;;;;;;;;41.30;93.70;;;;;;4976116;28;19976;-84
2022/05/15 09:53:46;;;;;;;;;;;40.60;93.10;;;;;;4960066;28;19932;-84
2022/05/15 09:56:11;;;;;;;;;;;40.10;91.60;;;;;;4972572;28;19925;-85
2022/05/15 09:58:52;;;;;;;;;;;40.10;91.70;;;;;;4962817;28;19997;-84
2022/05/15 10:01:24;;;;;;;;;;;40.20;91.70;;;;;;4950647;28;19977;-86
2022/05/15 10:03:52;;;;;;;;;;;40.50;92.50;;;;;;4961662;28;19911;-84
2022/05/15 10:06:20;;;;;;;;;;;40.40;91.70;;;;;;4975587;28;20332;-84
2022/05/15 10:08:45;;;;;;;;;;;39.90;90.80;;;;;;4958396;28;19965;-84
2022/05/15 10:11:18;;;;;;;;;;;39.90;90.50;;;;;;4958370;28;19918;-84
2022/05/15 10:13:46;;;;;;;;;;;39.80;90.90;;;;;;4969107;28;20376;-84
2022/05/15 10:16:17;;;;;;;;;;;39.80;91.30;;;;;;4974935;28;19921;-84
2022/05/15 10:18:47;;;;;;;;;;;40.40;92.60;;;;;;4980410;28;19961;-85
2022/05/15 10:21:13;;;;;;;;;;;40.20;92.10;;;;;;4964457;28;19914;-83
2022/05/15 10:23:45;;;;;;;;;;;39.40;90.20;;;;;;4981248;28;19949;-84
2022/05/15 10:26:15;;;;;;;;;;;39.50;91.60;;;;;;4965804;28;19966;-84
2022/05/15 10:28:48;;;;;;;;;;;39.30;91.10;;;;;;4962004;28;20008;-84
2022/05/15 10:31:28;;;;;;;;;;;39.60;91.60;;;;;;4982946;28;19910;-83
2022/05/15 10:33:55;;;;;;;;;;;40.30;92.90;;;;;;4967893;28;19978;-83
2022/05/15 10:36:20;;;;;;;;;;;40.00;92.60;;;;;;4967155;28;19910;-84
2022/05/15 10:38:45;;;;;;;;;;;40.60;92.50;;;;;;4965027;28;19910;-83
2022/05/15 10:41:14;;;;;;;;;;;40.60;93.00;;;;;;4982483;28;19925;-83
2022/05/15 10:43:44;;;;;;;;;;;40.30;92.90;;;;;;4965886;28;19943;-83
2022/05/15 10:46:26;;;;;;;;;;;40.20;92.90;;;;;;4964384;28;19970;-83
2022/05/15 10:49:01;;;;;;;;;;;40.90;94.70;;;;;;4982035;28;20675;-84
2022/05/15 10:51:33;;;;;;;;;;;40.30;93.60;;;;;;4963748;28;19910;-84
2022/05/15 11:00:02;;;;;;;;;;;40.10;93.60;;;;;;4982113;28;19937;-82
2022/05/15 11:02:30;;;;;;;;;;;40.00;93.00;;;;;;4953682;29;19918;-84
2022/05/15 11:05:00;;;;;;;;;;;40.50;94.10;;;;;;4979572;28;19911;-83
2022/05/15 11:07:36;;;;;;;;;;;40.10;93.60;;;;;;4963762;28;19945;-84
2022/05/15 11:10:01;;;;;;;;;;;40.50;94.30;;;;;;4981448;28;19921;-83
2022/05/15 11:12:33;;;;;;;;;;;40.70;94.30;;;;;;4964133;28;19910;-84
2022/05/15 11:15:17;;;;;;;;;;;41.00;94.70;;;;;;4964027;28;20458;-83
2022/05/15 11:17:53;;;;;;;;;;;40.20;93.00;;;;;;4981192;28;20380;-84
2022/05/15 11:20:21;;;;;;;;;;;39.30;91.70;;;;;;4975605;28;19969;-82
2022/05/15 11:22:49;;;;;;;;;;;40.20;93.50;;;;;;4963999;28;19914;-83
2022/05/15 11:25:41;;;;;;;;;;;40.50;94.10;;;;;;4963461;28;19910;-84
2022/05/15 11:28:10;;;;;;;;;;;40.40;94.20;;;;;;4977381;28;19914;-82
2022/05/15 11:30:38;;;;;;;;;;;39.40;92.20;;;;;;4963347;28;19953;-83
2022/05/15 11:33:08;;;;;;;;;;;39.20;91.70;;;;;;4981404;28;19965;-84
2022/05/15 11:35:36;;;;;;;;;;;39.30;91.70;;;;;;4962914;28;19910;-83
2022/05/15 11:38:04;;;;;;;;;;;38.90;91.10;;;;;;4982295;28;20012;-84
2022/05/15 11:40:36;;;;;;;;;;;38.20;90.20;;;;;;4984385;28;19984;-84
2022/05/15 11:43:40;;;;;;;;;;;38.00;89.60;;;;;;4984219;28;19968;-83
2022/05/15 11:46:07;;;;;;;;;;;37.80;90.00;;;;;;4906112;29;19911;-83
2022/05/15 11:48:32;;;;;;;;;;;37.50;90.20;;;;;;4905295;29;19953;-81
2022/05/15 11:51:02;;;;;;;;;;;37.60;90.40;;;;;;4943407;28;20411;-83
2022/05/15 11:53:50;;;;;;;;;;;37.00;86.20;;;;;;4966840;28;19915;-83
2022/05/15 11:56:20;;;;;;;;;;;36.90;86.80;;;;;;4965346;29;19911;-83
2022/05/15 11:58:51;;;;;;;;;;;36.80;88.40;;;;;;4947447;29;19910;-83
2022/05/15 12:01:32;;;;;;;;;;;36.90;88.30;;;;;;4947914;29;19918;-83
2022/05/15 12:03:59;;;;;;;;;;;37.80;90.40;;;;;;4964521;29;19917;-83
2022/05/15 12:06:26;;;;;;;;;;;37.60;90.50;;;;;;4964958;29;19969;-83
2022/05/15 12:09:11;;;;;;;;;;;37.60;90.90;;;;;;4964398;29;19945;-82
2022/05/15 12:11:37;;;;;;;;;;;37.10;87.90;;;;;;4951268;28;19918;-83
2022/05/15 12:14:21;;;;;;;;;;;37.60;90.00;;;;;;4982164;28;19921;-82
2022/05/15 12:16:52;;;;;;;;;;;38.20;91.10;;;;;;4982982;28;20000;-83
2022/05/15 12:19:44;;;;;;;;;;;38.00;90.80;;;;;;4965712;28;19949;-83
2022/05/15 12:22:11;;;;;;;;;;;37.70;90.00;;;;;;4979434;28;20444;-82
2022/05/15 12:24:38;;;;;;;;;;;37.20;88.10;;;;;;4984118;28;20066;-82
2022/05/15 12:27:06;;;;;;;;;;;36.90;85.60;;;;;;4965283;28;19918;-83
2022/05/15 12:29:51;;;;;;;;;;;36.70;84.00;;;;;;4982683;28;19910;-84
2022/05/15 12:32:19;;;;;;;;;;;36.60;83.00;;;;;;4966026;28;19911;-83
2022/05/15 12:34:47;;;;;;;;;;;36.00;83.00;;;;;;4965099;28;19917;-82
2022/05/15 12:37:18;;;;;;;;;;;35.50;80.40;;;;;;4965689;28;19910;-82
2022/05/15 12:39:46;;;;;;;;;;;35.80;82.50;;;;;;4982991;28;20369;-81
2022/05/15 12:42:14;;;;;;;;;;;35.40;81.40;;;;;;4966502;28;19910;-82
2022/05/15 12:44:40;;;;;;;;;;;35.50;83.60;;;;;;4981740;28;19985;-82
2022/05/15 12:47:09;;;;;;;;;;;35.40;82.10;;;;;;4964641;28;19945;-83
2022/05/15 12:49:36;;;;;;;;;;;35.00;80.50;;;;;;4964367;28;19941;-83
2022/05/15 12:52:21;;;;;;;;;;;35.40;83.10;;;;;;4981814;28;19911;-82
2022/05/15 12:54:55;;;;;;;;;;;35.60;84.50;;;;;;4965813;28;20372;-82
2022/05/15 12:57:21;;;;;;;;;;;35.80;85.20;;;;;;4983121;28;19920;-83
2022/05/15 12:59:48;;;;;;;;;;;35.70;84.30;;;;;;4965619;28;20289;-82
2022/05/15 13:02:14;;;;;;;;;;;35.50;82.70;;;;;;4965444;28;20335;-82
2022/05/15 13:04:44;;;;;;;;;;;34.80;80.00;;;;;;4977978;28;19910;-83
2022/05/15 13:07:10;;;;;;;;;;;34.50;79.30;;;;;;4945856;29;20292;-83
2022/05/15 13:09:35;;;;;;;;;;;33.80;75.00;;;;;;4962127;29;19910;-82
2022/05/15 13:12:02;;;;;;;;;;;33.50;75.80;;;;;;4945877;29;20446;-82
2022/05/15 13:14:29;;;;;;;;;;;33.10;73.70;;;;;;4945575;29;20388;-83
2022/05/15 13:16:55;;;;;;;;;;;32.60;72.30;;;;;;4962877;29;20001;-83
2022/05/15 13:19:24;;;;;;;;;;;32.00;70.80;;;;;;4945232;28;19946;-82
2022/05/15 13:21:53;;;;;;;;;;;31.90;71.50;;;;;;4964314;28;19910;-84
2022/05/15 13:24:19;;;;;;;;;;;31.40;69.80;;;;;;4964431;28;19982;-83
2022/05/15 13:26:46;;;;;;;;;;;31.00;70.60;;;;;;4981696;28;19917;-82
2022/05/15 13:29:16;;;;;;;;;;;30.70;71.30;;;;;;4983314;28;19910;-82
2022/05/15 13:31:43;;;;;;;;;;;30.60;72.10;;;;;;4982437;28;20467;-82
2022/05/15 13:34:10;;;;;;;;;;;30.20;70.80;;;;;;5008569;23;19914;-89
2022/05/15 13:36:35;;;;;;;;;;;30.10;72.40;;;;;;4976130;28;20013;-88
2022/05/15 13:44:32;;;;;;;;;;;31.60;79.50;;;;;;4972748;28;19980;-89
2022/05/15 13:47:02;;;;;;;;;;;31.80;94.00;;;;;;4958586;29;19917;-89
2022/05/15 13:49:44;;;;;;;;;;;31.90;82.90;;;;;;4941315;29;19954;-89
2022/05/15 13:52:20;;;;;;;;;;;31.90;82.20;;;;;;4959131;29;19918;-88
2022/05/15 13:54:45;;;;;;;;;;;32.00;84.10;;;;;;4940205;29;19914;-89
2022/05/15 13:57:11;;;;;;;;;;;32.00;84.30;;;;;;4957265;29;20281;-89
2022/05/15 13:59:44;;;;;;;;;;;31.90;82.60;;;;;;4956199;29;19910;-89
2022/05/15 14:02:12;;;;;;;;;;;31.30;78.50;;;;;;4957297;28;19918;-89
2022/05/15 14:04:39;;;;;;;;;;;30.80;77.90;;;;;;4957934;29;19917;-89
2022/05/15 14:07:05;;;;;;;;;;;30.50;78.20;;;;;;4957147;29;19937;-88
2022/05/15 14:09:43;;;;;;;;;;;30.40;76.80;;;;;;4957590;29;19910;-89
2022/05/15 14:12:12;;;;;;;;;;;30.30;75.70;;;;;;4951914;28;20065;-89
2022/05/15 14:14:46;;;;;;;;;;;30.10;76.10;;;;;;4940701;29;20001;-89
2022/05/15 14:17:13;;;;;;;;;;;30.20;77.10;;;;;;4940096;29;19910;-88
2022/05/15 14:19:48;;;;;;;;;;;30.30;79.20;;;;;;4957448;29;19911;-89
2022/05/15 14:22:13;;;;;;;;;;;30.40;80.10;;;;;;4960237;29;19941;-89
2022/05/15 14:24:39;;;;;;;;;;;30.50;81.30;;;;;;4956655;28;19911;-89
2022/05/15 14:27:05;;;;;;;;;;;30.70;81.60;;;;;;4956214;29;19914;-89
2022/05/15 14:29:30;;;;;;;;;;;30.60;80.80;;;;;;4946535;29;19997;-89
2022/05/15 14:32:03;;;;;;;;;;;30.70;81.50;;;;;;4948987;29;19910;-89
2022/05/15 14:34:28;;;;;;;;;;;30.70;80.90;;;;;;4956131;29;19919;-88
2022/05/15 14:36:54;;;;;;;;;;;30.60;80.30;;;;;;4956024;29;19942;-89
2022/05/15 14:39:19;;;;;;;;;;;30.80;82.20;;;;;;4965564;29;19973;-88
2022/05/15 14:41:45;;;;;;;;;;;31.10;84.30;;;;;;4971615;29;19910;-87
2022/05/15 14:44:10;;;;;;;;;;;31.40;84.00;;;;;;4971568;29;19917;-86
2022/05/15 14:46:36;;;;;;;;;;;31.30;84.40;;;;;;4971827;29;19910;-87
2022/05/15 14:49:02;;;;;;;;;;;31.10;83.60;;;;;;4955058;29;19910;-87
2022/05/15 14:51:29;;;;;;;;;;;30.90;82.40;;;;;;4972418;29;19925;-88
2022/05/15 14:53:56;;;;;;;;;;;30.60;81.80;;;;;;4955743;29;19922;-86
2022/05/15 14:56:23;;;;;;;;;;;30.40;82.70;;;;;;4972983;29;19916;-86
2022/05/15 14:58:53;;;;;;;;;;;30.30;81.20;;;;;;4956651;29;19959;-86
2022/05/15 15:01:19;;;;;;;;;;;30.20;80.70;;;;;;4976692;29;19910;-89
2022/05/15 15:03:45;;;;;;;;;;;30.30;80.90;;;;;;4961025;29;19914;-87
2022/05/15 15:06:11;;;;;;;;;;;30.40;83.60;;;;;;4971618;29;19918;-86
2022/05/15 15:08:36;;;;;;;;;;;30.10;81.10;;;;;;4972783;29;19911;-84